createdAt,value
2023-02-19T00:01:46.266Z,11.90
2023-02-19T00:04:16.396Z,11.90
2023-02-19T00:06:44.818Z,12.00
2023-02-19T00:09:13.239Z,11.90
2023-02-19T00:11:41.053Z,11.90
2023-02-19T00:14:08.263Z,11.90
2023-02-19T00:16:37.630Z,11.80
2023-02-19T00:19:07.822Z,11.80
2023-02-19T00:21:35.082Z,11.80
2023-02-19T00:24:04.039Z,11.80
2023-02-19T00:26:31.266Z,11.80
2023-02-19T00:28:58.817Z,11.90
2023-02-19T00:31:33.207Z,11.80
2023-02-19T00:34:03.081Z,11.80
2023-02-19T00:36:31.002Z,11.90
2023-02-19T00:38:58.056Z,11.80
2023-02-19T00:41:25.602Z,11.80
2023-02-19T00:44:00.901Z,11.70
2023-02-19T00:46:47.710Z,11.70
2023-02-19T00:49:22.985Z,11.60
2023-02-19T00:51:52.024Z,11.70
2023-02-19T00:54:19.841Z,11.60
2023-02-19T00:56:47.464Z,11.70
2023-02-19T00:59:15.076Z,11.80
2023-02-19T01:01:44.601Z,11.70
2023-02-19T01:04:12.120Z,11.80
2023-02-19T01:06:39.112Z,11.90
2023-02-19T01:09:07.724Z,11.80
2023-02-19T01:11:34.729Z,11.70
2023-02-19T01:14:01.917Z,11.80
2023-02-19T01:16:29.329Z,11.70
2023-02-19T01:18:57.831Z,11.70
2023-02-19T01:21:27.035Z,11.80
2023-02-19T01:23:54.455Z,11.80
2023-02-19T01:26:32.457Z,11.80
2023-02-19T01:29:00.583Z,11.90
2023-02-19T01:31:27.950Z,11.90
2023-02-19T01:33:57.875Z,12.00
2023-02-19T01:36:26.033Z,11.90
2023-02-19T01:38:53.019Z,12.00
2023-02-19T01:41:22.866Z,11.90
2023-02-19T01:44:18.219Z,11.90
2023-02-19T01:46:48.517Z,11.90
2023-02-19T01:49:15.316Z,11.90
2023-02-19T01:51:48.298Z,11.80
2023-02-19T01:54:18.108Z,12.00
2023-02-19T01:56:47.570Z,11.80
2023-02-19T01:59:15.044Z,11.90
2023-02-19T02:01:42.170Z,12.00
2023-02-19T02:04:11.991Z,12.00
2023-02-19T02:06:49.315Z,11.90
2023-02-19T02:09:38.284Z,12.00
2023-02-19T02:12:05.602Z,12.00
2023-02-19T02:14:36.958Z,11.80
2023-02-19T02:17:37.839Z,11.70
2023-02-19T02:20:38.682Z,11.70
2023-02-19T02:23:40.487Z,11.90
2023-02-19T02:26:10.195Z,11.90
2023-02-19T02:28:58.990Z,11.90
2023-02-19T02:32:20.063Z,11.90
2023-02-19T02:35:13.728Z,11.80
2023-02-19T02:37:43.979Z,11.60
2023-02-19T02:40:12.219Z,11.80
2023-02-19T02:42:40.252Z,11.80
2023-02-19T02:45:35.593Z,11.90
2023-02-19T02:48:41.044Z,11.80
2023-02-19T02:51:41.432Z,11.70
2023-02-19T02:54:40.271Z,11.80
2023-02-19T02:57:09.466Z,11.70
2023-02-19T02:59:39.860Z,11.70
2023-02-19T03:02:14.950Z,11.70
2023-02-19T03:05:21.805Z,11.60
2023-02-19T03:07:54.999Z,11.50
2023-02-19T03:10:34.115Z,11.70
2023-02-19T03:13:21.350Z,11.70
2023-02-19T03:16:11.483Z,11.80
2023-02-19T03:18:59.936Z,11.70
2023-02-19T03:21:29.071Z,11.70
2023-02-19T03:24:15.679Z,11.60
2023-02-19T03:26:46.121Z,11.60
2023-02-19T03:29:23.843Z,11.50
2023-02-19T03:31:58.899Z,11.60
2023-02-19T03:34:51.446Z,11.50
2023-02-19T03:37:32.509Z,11.50
2023-02-19T03:39:59.520Z,11.60
2023-02-19T03:42:41.626Z,11.60
2023-02-19T03:45:25.728Z,11.60
2023-02-19T03:48:16.036Z,11.50
2023-02-19T03:51:21.170Z,11.50
2023-02-19T03:54:34.919Z,11.60
2023-02-19T03:57:14.367Z,11.50
2023-02-19T04:00:15.928Z,11.40
2023-02-19T04:03:11.857Z,11.50
2023-02-19T04:05:46.848Z,11.60
2023-02-19T04:08:20.384Z,11.70
2023-02-19T04:10:48.958Z,11.60
2023-02-19T04:13:26.693Z,11.50
2023-02-19T04:15:57.615Z,11.50
2023-02-19T04:18:31.640Z,11.50
2023-02-19T04:21:00.534Z,11.50
2023-02-19T04:23:34.817Z,11.60
2023-02-19T04:26:03.137Z,11.60
2023-02-19T04:28:31.372Z,11.50
2023-02-19T04:30:58.345Z,11.50
2023-02-19T04:33:25.417Z,11.50
2023-02-19T04:35:52.460Z,11.40
2023-02-19T04:38:19.544Z,11.50
2023-02-19T04:40:47.184Z,11.50
2023-02-19T04:43:14.081Z,11.60
2023-02-19T04:45:40.951Z,11.70
2023-02-19T04:48:07.898Z,11.50
2023-02-19T04:50:35.000Z,11.40
2023-02-19T04:53:01.903Z,11.40
2023-02-19T04:55:28.839Z,11.50
2023-02-19T04:57:55.685Z,11.50
2023-02-19T05:00:22.768Z,11.50
2023-02-19T05:02:50.148Z,11.50
2023-02-19T05:05:17.338Z,11.60
2023-02-19T05:07:44.407Z,11.50
2023-02-19T05:10:11.584Z,11.50
2023-02-19T05:12:38.544Z,11.50
2023-02-19T05:15:05.536Z,11.40
2023-02-19T05:17:35.455Z,11.30
2023-02-19T05:20:02.608Z,11.40
2023-02-19T05:22:33.019Z,11.40
2023-02-19T05:25:00.176Z,11.40
2023-02-19T05:27:27.176Z,11.50
2023-02-19T05:29:54.066Z,11.50
2023-02-19T05:32:21.168Z,11.50
2023-02-19T05:34:48.112Z,11.40
2023-02-19T05:37:16.470Z,11.50
2023-02-19T05:39:43.339Z,11.50
2023-02-19T05:42:10.165Z,11.50
2023-02-19T05:44:37.187Z,11.50
2023-02-19T05:47:04.077Z,11.60
2023-02-19T05:49:30.856Z,11.40
2023-02-19T05:51:57.897Z,11.40
2023-02-19T05:54:24.922Z,11.50
2023-02-19T05:56:51.818Z,11.20
2023-02-19T05:59:21.012Z,11.20
2023-02-19T06:01:49.460Z,11.20
2023-02-19T06:04:19.230Z,11.40
2023-02-19T06:06:47.054Z,11.30
2023-02-19T06:09:14.069Z,11.30
2023-02-19T06:11:40.970Z,11.40
2023-02-19T06:14:07.806Z,11.40
2023-02-19T06:16:34.594Z,11.30
2023-02-19T06:19:04.940Z,11.30
2023-02-19T06:21:32.078Z,11.20
2023-02-19T06:23:59.008Z,11.20
2023-02-19T06:26:26.572Z,11.10
2023-02-19T06:28:54.666Z,11.20
2023-02-19T06:31:22.444Z,11.30
2023-02-19T06:33:50.783Z,11.20
2023-02-19T06:36:20.261Z,11.30
2023-02-19T06:38:47.347Z,11.20
2023-02-19T06:41:14.981Z,11.30
2023-02-19T06:43:42.243Z,11.30
2023-02-19T06:46:11.181Z,11.50
2023-02-19T06:48:39.301Z,11.40
2023-02-19T06:51:06.346Z,11.40
2023-02-19T06:53:33.207Z,11.30
2023-02-19T06:56:30.725Z,11.30
2023-02-19T06:59:00.361Z,11.40
2023-02-19T07:01:29.164Z,11.50
2023-02-19T07:03:56.299Z,11.40
2023-02-19T07:06:24.383Z,11.40
2023-02-19T07:08:52.811Z,11.20
2023-02-19T07:11:19.831Z,11.10
2023-02-19T07:13:46.749Z,11.30
2023-02-19T07:16:14.267Z,11.20
2023-02-19T07:18:41.489Z,11.10
2023-02-19T07:21:12.220Z,11.10
2023-02-19T07:23:40.016Z,11.00
2023-02-19T07:26:11.455Z,11.00
2023-02-19T07:28:38.727Z,10.90
2023-02-19T07:31:05.971Z,11.00
2023-02-19T07:33:32.894Z,11.10
2023-02-19T07:35:59.708Z,11.10
2023-02-19T07:38:27.679Z,11.10
2023-02-19T07:40:59.621Z,11.40
2023-02-19T07:43:29.039Z,11.40
2023-02-19T07:45:56.356Z,11.40
2023-02-19T07:48:23.753Z,11.30
2023-02-19T07:50:57.908Z,11.50
2023-02-19T07:53:27.099Z,11.40
2023-02-19T07:55:54.225Z,11.30
2023-02-19T07:58:21.367Z,11.40
2023-02-19T08:00:48.427Z,11.60
2023-02-19T08:03:16.113Z,11.50
2023-02-19T08:05:43.448Z,11.60
2023-02-19T08:08:13.566Z,11.60
2023-02-19T08:10:59.996Z,11.50
2023-02-19T08:13:30.160Z,11.60
2023-02-19T08:16:16.321Z,11.60
2023-02-19T08:18:46.390Z,11.60
2023-02-19T08:21:13.574Z,11.50
2023-02-19T08:23:40.700Z,11.60
2023-02-19T08:26:08.662Z,11.60
2023-02-19T08:28:35.864Z,11.60
2023-02-19T08:31:05.315Z,11.70
2023-02-19T08:33:32.485Z,11.60
2023-02-19T08:36:04.805Z,11.70
2023-02-19T08:38:35.839Z,11.60
2023-02-19T08:41:12.715Z,11.60
2023-02-19T08:43:41.119Z,11.80
2023-02-19T08:46:12.910Z,11.60
2023-02-19T08:48:40.907Z,11.60
2023-02-19T08:51:10.954Z,11.80
2023-02-19T08:53:39.792Z,11.80
2023-02-19T08:56:11.812Z,12.00
2023-02-19T08:58:39.160Z,12.00
2023-02-19T09:01:15.721Z,12.20
2023-02-19T09:03:43.652Z,12.30
2023-02-19T09:06:16.323Z,12.20
2023-02-19T09:08:43.380Z,12.30
2023-02-19T09:11:10.696Z,12.40
2023-02-19T09:13:37.865Z,12.50
2023-02-19T09:16:05.532Z,12.60
2023-02-19T09:18:33.088Z,12.30
2023-02-19T09:21:01.990Z,12.20
2023-02-19T09:23:29.197Z,12.40
2023-02-19T09:26:00.438Z,12.40
2023-02-19T09:28:28.048Z,12.30
2023-02-19T09:30:55.317Z,12.40
2023-02-19T09:33:22.522Z,12.30
2023-02-19T09:35:49.351Z,12.50
2023-02-19T09:38:16.362Z,12.40
2023-02-19T09:40:43.456Z,12.60
2023-02-19T09:43:18.614Z,12.60
2023-02-19T09:45:45.837Z,12.80
2023-02-19T09:48:13.228Z,12.70
2023-02-19T09:50:45.757Z,12.70
2023-02-19T09:53:25.370Z,12.90
2023-02-19T09:55:53.704Z,13.00
2023-02-19T09:58:32.219Z,13.00
2023-02-19T10:01:02.826Z,13.00
2023-02-19T10:03:41.281Z,13.10
2023-02-19T10:06:23.932Z,13.30
2023-02-19T10:09:21.794Z,13.50
2023-02-19T10:11:49.914Z,13.50
2023-02-19T10:14:30.022Z,13.50
2023-02-19T10:16:59.699Z,13.70
2023-02-19T10:19:26.726Z,13.80
2023-02-19T10:21:53.910Z,13.90
2023-02-19T10:24:27.126Z,14.00
2023-02-19T10:26:54.404Z,14.20
2023-02-19T10:29:22.121Z,14.30
2023-02-19T10:31:49.210Z,14.50
2023-02-19T10:34:22.899Z,14.60
2023-02-19T10:36:51.648Z,14.70
2023-02-19T10:39:21.655Z,14.50
2023-02-19T10:41:54.712Z,14.60
2023-02-19T10:44:32.229Z,14.80
2023-02-19T10:47:01.069Z,15.00
2023-02-19T10:49:48.851Z,15.00
2023-02-19T10:52:26.984Z,15.10
2023-02-19T10:54:58.374Z,15.10
2023-02-19T10:57:31.358Z,15.00
2023-02-19T11:00:04.069Z,15.10
2023-02-19T11:02:32.015Z,15.10
2023-02-19T11:05:05.186Z,15.20
2023-02-19T11:07:32.610Z,15.30
2023-02-19T11:10:00.450Z,15.30
2023-02-19T11:12:33.837Z,15.20
2023-02-19T11:15:18.701Z,15.30
2023-02-19T11:17:46.065Z,15.20
2023-02-19T11:20:17.808Z,15.30
2023-02-19T11:22:49.431Z,15.30
2023-02-19T11:25:17.255Z,15.40
2023-02-19T11:28:04.977Z,15.40
2023-02-19T11:30:36.019Z,15.70
2023-02-19T11:33:20.787Z,15.80
2023-02-19T11:35:52.795Z,15.80
2023-02-19T11:38:21.659Z,15.90
2023-02-19T11:40:53.566Z,16.00
2023-02-19T11:43:23.534Z,15.90
2023-02-19T11:46:02.558Z,16.00
2023-02-19T11:48:48.352Z,16.00
2023-02-19T11:51:53.138Z,15.90
2023-02-19T11:54:32.152Z,15.80
2023-02-19T11:57:23.761Z,15.70
2023-02-19T12:00:07.755Z,15.60
2023-02-19T12:03:00.876Z,15.40
2023-02-19T12:05:56.916Z,15.50
2023-02-19T12:09:01.767Z,15.30
2023-02-19T12:11:59.582Z,15.00
2023-02-19T12:14:50.548Z,15.00
2023-02-19T12:17:35.722Z,14.90
2023-02-19T12:20:19.462Z,14.80
2023-02-19T12:23:13.297Z,14.60
2023-02-19T12:25:56.803Z,14.90
2023-02-19T12:28:57.239Z,14.90
2023-02-19T12:32:09.988Z,14.80
2023-02-19T12:34:42.902Z,14.60
2023-02-19T12:37:21.651Z,14.60
2023-02-19T12:40:14.304Z,14.60
2023-02-19T12:43:06.830Z,14.50
2023-02-19T12:45:37.733Z,14.50
2023-02-19T12:48:27.381Z,14.50
2023-02-19T12:51:08.238Z,14.40
2023-02-19T12:53:52.871Z,14.30
2023-02-19T12:56:31.350Z,14.30
2023-02-19T12:59:10.284Z,14.10
2023-02-19T13:01:48.674Z,14.00
2023-02-19T13:04:15.927Z,13.80
2023-02-19T13:07:05.572Z,13.90
2023-02-19T13:09:51.058Z,13.90
2023-02-19T13:12:29.111Z,13.90
2023-02-19T13:15:01.135Z,14.10
2023-02-19T13:17:45.061Z,14.00
2023-02-19T13:20:27.449Z,13.90
2023-02-19T13:23:34.858Z,13.90
2023-02-19T13:26:32.432Z,13.90
2023-02-19T13:29:25.964Z,14.10
2023-02-19T13:32:18.053Z,14.10
2023-02-19T13:35:17.023Z,13.80
2023-02-19T13:37:45.145Z,13.80
2023-02-19T13:40:27.307Z,13.70
2023-02-19T13:43:00.568Z,13.90
2023-02-19T13:45:46.335Z,13.60
2023-02-19T13:48:28.953Z,13.80
2023-02-19T13:51:23.735Z,13.80
2023-02-19T13:53:56.726Z,13.90
2023-02-19T13:56:37.363Z,13.80
2023-02-19T13:59:35.662Z,13.90
2023-02-19T14:02:03.808Z,14.00
2023-02-19T14:05:00.340Z,14.00
2023-02-19T14:07:27.222Z,13.90
2023-02-19T14:09:54.802Z,13.60
2023-02-19T14:12:30.594Z,13.50
2023-02-19T14:14:57.809Z,13.70
2023-02-19T14:17:41.952Z,13.80
2023-02-19T14:20:18.260Z,13.90
2023-02-19T14:22:52.623Z,13.80
2023-02-19T14:25:31.018Z,14.00
2023-02-19T14:28:35.573Z,14.10
2023-02-19T14:31:38.505Z,14.00
2023-02-19T14:34:14.526Z,13.90
2023-02-19T14:36:51.980Z,13.80
2023-02-19T14:39:21.393Z,13.90
2023-02-19T14:42:12.722Z,13.70
2023-02-19T14:44:55.031Z,13.80
2023-02-19T14:47:24.904Z,13.90
2023-02-19T14:49:54.097Z,14.00
2023-02-19T14:52:26.151Z,14.00
2023-02-19T14:54:56.853Z,13.70
2023-02-19T14:57:28.696Z,13.80
2023-02-19T14:59:59.269Z,13.60
2023-02-19T15:02:31.214Z,13.60
2023-02-19T15:04:58.348Z,13.50
2023-02-19T15:07:30.298Z,13.50
2023-02-19T15:10:05.663Z,13.50
2023-02-19T15:12:43.772Z,13.50
2023-02-19T15:15:28.194Z,13.60
2023-02-19T15:17:56.899Z,13.60
2023-02-19T15:20:27.646Z,13.60
2023-02-19T15:22:56.325Z,13.60
2023-02-19T15:25:27.561Z,13.60
2023-02-19T15:27:54.528Z,13.80
2023-02-19T15:30:30.218Z,13.70
2023-02-19T15:33:00.883Z,13.70
2023-02-19T15:35:29.703Z,13.70
2023-02-19T15:37:56.952Z,13.60
2023-02-19T15:40:31.027Z,13.60
2023-02-19T15:43:00.371Z,13.70
2023-02-19T15:45:36.629Z,13.70
2023-02-19T15:48:10.228Z,13.70
2023-02-19T15:50:44.167Z,13.90
2023-02-19T15:53:31.218Z,13.90
2023-02-19T15:56:21.988Z,13.90
2023-02-19T15:58:51.908Z,13.90
2023-02-19T16:01:36.604Z,13.80
2023-02-19T16:04:06.513Z,13.80
2023-02-19T16:06:52.846Z,13.80
2023-02-19T16:09:39.014Z,13.80
2023-02-19T16:12:24.470Z,13.70
2023-02-19T16:14:51.821Z,13.50
2023-02-19T16:17:23.131Z,13.20
2023-02-19T16:20:02.736Z,13.10
2023-02-19T16:22:41.933Z,13.00
2023-02-19T16:25:24.842Z,12.90
2023-02-19T16:27:52.303Z,12.80
2023-02-19T16:30:25.775Z,12.70
2023-02-19T16:33:33.625Z,12.80
2023-02-19T16:36:22.823Z,12.80
2023-02-19T16:39:18.958Z,12.80
2023-02-19T16:41:48.532Z,12.70
2023-02-19T16:44:21.569Z,12.70
2023-02-19T16:46:50.292Z,12.50
2023-02-19T16:49:17.631Z,12.40
2023-02-19T16:51:46.065Z,12.30
2023-02-19T16:54:13.619Z,12.20
2023-02-19T16:56:40.521Z,12.20
2023-02-19T16:59:08.105Z,12.10
2023-02-19T17:01:37.084Z,12.00
2023-02-19T17:04:11.535Z,12.10
2023-02-19T17:06:39.452Z,12.20
2023-02-19T17:09:08.601Z,11.90
2023-02-19T17:11:36.391Z,11.60
2023-02-19T17:14:03.402Z,11.50
2023-02-19T17:16:39.566Z,11.40
2023-02-19T17:19:13.545Z,11.30
2023-02-19T17:21:40.655Z,11.50
2023-02-19T17:24:08.020Z,11.40
2023-02-19T17:26:35.161Z,11.20
2023-02-19T17:29:06.040Z,11.20
2023-02-19T17:31:34.157Z,11.20
2023-02-19T17:34:01.366Z,11.10
2023-02-19T17:36:31.172Z,11.10
2023-02-19T17:38:59.740Z,10.80
2023-02-19T17:41:27.689Z,10.80
2023-02-19T17:43:54.909Z,10.70
2023-02-19T17:46:27.251Z,10.60
2023-02-19T17:48:54.990Z,10.60
2023-02-19T17:51:22.449Z,10.50
2023-02-19T17:53:49.560Z,10.50
2023-02-19T17:56:22.103Z,10.50
2023-02-19T17:58:49.758Z,10.40
2023-02-19T18:01:16.655Z,10.50
2023-02-19T18:03:44.301Z,10.40
2023-02-19T18:06:11.414Z,10.60
2023-02-19T18:08:38.421Z,10.40
2023-02-19T18:11:06.960Z,10.40
2023-02-19T18:13:33.769Z,10.30
2023-02-19T18:16:00.632Z,10.30
2023-02-19T18:18:27.623Z,10.30
2023-02-19T18:20:54.552Z,10.20
2023-02-19T18:23:21.545Z,10.20
2023-02-19T18:25:48.522Z,10.10
2023-02-19T18:28:15.993Z,10.20
2023-02-19T18:30:43.102Z,10.10
2023-02-19T18:33:13.462Z,9.80
2023-02-19T18:35:40.262Z,9.70
2023-02-19T18:38:07.129Z,9.70
2023-02-19T18:40:34.884Z,9.80
2023-02-19T18:43:01.686Z,9.70
2023-02-19T18:45:29.831Z,9.60
2023-02-19T18:47:56.886Z,9.50
2023-02-19T18:50:23.839Z,9.50
2023-02-19T18:52:51.533Z,9.40
2023-02-19T18:55:18.889Z,9.30
2023-02-19T18:57:46.989Z,9.30
2023-02-19T19:00:26.628Z,9.20
2023-02-19T19:02:59.935Z,9.20
2023-02-19T19:05:27.668Z,9.20
2023-02-19T19:07:56.548Z,9.30
2023-02-19T19:10:24.191Z,9.20
2023-02-19T19:12:51.193Z,9.10
2023-02-19T19:15:18.956Z,9.00
2023-02-19T19:17:46.967Z,9.00
2023-02-19T19:20:18.039Z,9.00
2023-02-19T19:22:45.250Z,8.90
2023-02-19T19:25:12.316Z,8.90
2023-02-19T19:27:39.304Z,9.00
2023-02-19T19:30:07.133Z,9.00
2023-02-19T19:32:34.174Z,9.00
2023-02-19T19:35:01.076Z,8.90
2023-02-19T19:37:29.326Z,9.00
2023-02-19T19:39:56.598Z,9.00
2023-02-19T19:42:23.866Z,9.30
2023-02-19T19:44:51.428Z,9.20
2023-02-19T19:47:19.353Z,9.30
2023-02-19T19:49:47.376Z,9.20
2023-02-19T19:52:14.948Z,9.20
2023-02-19T19:54:43.313Z,9.10
2023-02-19T19:57:10.928Z,9.20
2023-02-19T19:59:39.528Z,9.00
2023-02-19T20:02:08.040Z,9.10
2023-02-19T20:04:35.156Z,9.00
2023-02-19T20:07:02.838Z,9.00
2023-02-19T20:09:29.938Z,9.10
2023-02-19T20:11:57.071Z,9.30
2023-02-19T20:14:25.272Z,9.20
2023-02-19T20:16:53.126Z,9.30
2023-02-19T20:19:20.470Z,9.20
2023-02-19T20:21:50.269Z,9.10
2023-02-19T20:24:31.136Z,9.00
2023-02-19T20:27:00.329Z,8.80
2023-02-19T20:29:29.152Z,8.70
2023-02-19T20:31:59.618Z,8.90
2023-02-19T20:34:27.307Z,8.90
2023-02-19T20:36:54.578Z,9.00
2023-02-19T20:39:22.618Z,9.10
2023-02-19T20:41:51.730Z,9.00
2023-02-19T20:44:19.302Z,9.00
2023-02-19T20:46:49.393Z,9.00
2023-02-19T20:49:18.308Z,9.10
2023-02-19T20:51:50.769Z,9.00
2023-02-19T20:54:18.956Z,9.20
2023-02-19T20:56:51.119Z,9.10
2023-02-19T20:59:18.807Z,9.30
2023-02-19T21:01:46.081Z,9.40
2023-02-19T21:04:14.308Z,9.10
2023-02-19T21:06:41.484Z,8.90
2023-02-19T21:09:08.662Z,9.00
2023-02-19T21:11:35.900Z,8.90
2023-02-19T21:14:03.064Z,9.10
2023-02-19T21:16:31.950Z,9.20
2023-02-19T21:18:59.607Z,9.30
2023-02-19T21:21:26.635Z,9.10
2023-02-19T21:23:58.200Z,9.00
2023-02-19T21:26:32.399Z,9.20
2023-02-19T21:28:59.295Z,9.30
2023-02-19T21:31:39.394Z,9.10
2023-02-19T21:34:08.381Z,9.00
2023-02-19T21:36:35.999Z,8.90
2023-02-19T21:39:05.374Z,8.80
2023-02-19T21:41:32.735Z,8.50
2023-02-19T21:43:59.845Z,8.50
2023-02-19T21:46:26.912Z,8.40
2023-02-19T21:48:56.040Z,8.80
2023-02-19T21:51:29.295Z,8.70
2023-02-19T21:53:56.148Z,8.40
2023-02-19T21:56:25.690Z,8.50
2023-02-19T21:58:52.532Z,8.50
2023-02-19T22:01:21.179Z,8.60
2023-02-19T22:03:48.691Z,8.40
2023-02-19T22:06:16.267Z,8.30
2023-02-19T22:08:44.470Z,8.40
2023-02-19T22:11:11.414Z,8.30
2023-02-19T22:13:39.751Z,8.10
2023-02-19T22:16:09.133Z,8.30
2023-02-19T22:18:36.165Z,8.10
2023-02-19T22:21:06.563Z,8.00
2023-02-19T22:23:33.390Z,7.80
2023-02-19T22:26:00.274Z,7.90
2023-02-19T22:28:27.065Z,8.10
2023-02-19T22:30:53.931Z,8.30
2023-02-19T22:33:20.814Z,8.40
2023-02-19T22:35:47.679Z,8.50
2023-02-19T22:38:14.492Z,8.40
2023-02-19T22:40:41.557Z,8.40
2023-02-19T22:43:08.452Z,8.20
2023-02-19T22:45:35.407Z,8.30
2023-02-19T22:48:02.523Z,8.20
2023-02-19T22:50:29.598Z,8.30
2023-02-19T22:52:56.669Z,8.20
2023-02-19T22:55:23.621Z,8.20
2023-02-19T22:57:50.461Z,8.30
2023-02-19T23:00:21.015Z,8.20
2023-02-19T23:02:49.066Z,8.30
2023-02-19T23:05:16.723Z,8.50
2023-02-19T23:07:45.299Z,8.70
2023-02-19T23:10:13.350Z,8.80
2023-02-19T23:12:40.987Z,8.60
2023-02-19T23:15:09.727Z,8.60
2023-02-19T23:17:36.740Z,8.60
2023-02-19T23:20:04.262Z,8.70
2023-02-19T23:22:34.126Z,8.80
2023-02-19T23:25:01.714Z,8.70
2023-02-19T23:27:28.718Z,8.90
2023-02-19T23:29:56.351Z,8.90
2023-02-19T23:32:23.866Z,9.00
2023-02-19T23:34:51.339Z,8.80
2023-02-19T23:37:18.261Z,8.90
2023-02-19T23:39:45.118Z,9.00
2023-02-19T23:42:16.655Z,9.00
2023-02-19T23:44:47.790Z,9.20
2023-02-19T23:47:15.179Z,9.20
2023-02-19T23:49:42.005Z,9.20
2023-02-19T23:52:09.020Z,9.10
2023-02-19T23:54:36.066Z,9.20
2023-02-19T23:57:03.166Z,9.20
2023-02-19T23:59:30.349Z,9.00
